Dzaoudzi/Pamanzi, Mayotte
Current Conditions -  °F | °C
As of 9:00 PM on Friday 19 Dec 2014 (Local Time) from FMCZ Reporting Station
Clear Clear  
Wind Chill: 82°   Ceiling: Unl
Heat Index: 88°   Visibility: 6mi
Dew Point: 73°   Wind: 5mph
Humidity: 74%   Direction: 340°NNW
Pressure: 29.88"   Gusts: NA
Location:  12.81°S, 45.28°E
Report Text: FMCZ 191800Z AUTO 34004KT 320V020 9999 NCD 28/23 Q1012
Loading
Personal Weather Stations






























Interactive Weather Map New forecast layout! Learn more

10-Day Weather Forecast

Advertisements
Track Severe Weather on mobile